Aughton, United Kingdom
Current Conditions -  °F | °C
As of 2:50 AM on Saturday 20 Dec 2014 (Local Time) from EGCN Reporting Station
Broken Clouds Broken Clouds  
Wind Chill: 40°   Ceiling: 2700
Heat Index: 48°   Visibility: 6mi
Dew Point: 39°   Wind: 28mph
Humidity: 71%   Direction: 270°W
Pressure: 30.03"   Gusts: 44mph
Location:  53.36°N, 1.27°W
Report Text: EGCN 200250Z 27024G38KT 9999 BKN027 09/04 Q1017
Loading
Personal Weather Stations






























Interactive Weather Map New forecast layout! Learn more

10-Day Weather Forecast

Advertisements
Track Severe Weather on mobile